createdAt,value
2022-08-07T00:04:38.000Z,0.9
2022-08-07T00:08:11.000Z,1.3
2022-08-07T00:12:18.000Z,0.9
2022-08-07T00:15:53.000Z,0.8
2022-08-07T00:23:59.000Z,1
2022-08-07T00:27:40.000Z,0.9
2022-08-07T00:31:22.000Z,0.8
2022-08-07T00:35:06.000Z,0.8
2022-08-07T00:38:42.000Z,0.9
2022-08-07T00:42:38.000Z,0.9
2022-08-07T00:46:15.000Z,1
2022-08-07T00:50:09.000Z,1
2022-08-07T00:53:58.000Z,1
2022-08-07T00:58:02.000Z,1.1
2022-08-07T01:01:35.000Z,1.1
2022-08-07T01:04:28.000Z,0.9
2022-08-07T01:08:10.000Z,1.1
2022-08-07T01:12:05.000Z,1
2022-08-07T01:15:56.000Z,0.8
2022-08-07T01:19:31.000Z,1.1
2022-08-07T01:23:24.000Z,1
2022-08-07T01:27:54.000Z,0.9
2022-08-07T01:31:32.000Z,1
2022-08-07T01:35:13.000Z,1.1
2022-08-07T01:38:56.000Z,1.2
2022-08-07T01:42:37.000Z,1.1
2022-08-07T01:45:42.000Z,1.1
2022-08-07T01:50:20.000Z,1.1
2022-08-07T01:54:03.000Z,1
2022-08-07T01:57:58.000Z,1
2022-08-07T02:01:55.000Z,1.2
2022-08-07T02:05:48.000Z,1
2022-08-07T02:09:49.000Z,1.1
2022-08-07T02:14:01.000Z,1
2022-08-07T02:17:34.000Z,1
2022-08-07T02:22:08.000Z,1
2022-08-07T02:25:43.000Z,1
2022-08-07T02:29:18.000Z,1
2022-08-07T02:32:51.000Z,1.1
2022-08-07T02:36:47.000Z,1.2
2022-08-07T02:40:26.000Z,1
2022-08-07T02:44:01.000Z,1.1
2022-08-07T02:48:00.000Z,1.1
2022-08-07T02:51:58.000Z,0.9
2022-08-07T02:55:37.000Z,1.3
2022-08-07T02:59:33.000Z,1
2022-08-07T03:03:17.000Z,1.1
2022-08-07T03:06:56.000Z,1.1
2022-08-07T03:09:54.000Z,1.2
2022-08-07T03:13:31.000Z,1.1
2022-08-07T03:17:54.000Z,1.1
2022-08-07T03:21:35.000Z,1.1
2022-08-07T03:25:18.000Z,1.2
2022-08-07T03:28:58.000Z,1.2
2022-08-07T03:32:36.000Z,1.2
2022-08-07T03:36:26.000Z,1.1
2022-08-07T03:39:59.000Z,1.1
2022-08-07T03:43:49.000Z,1.4
2022-08-07T03:50:58.000Z,1.1
2022-08-07T03:54:39.000Z,1.2
2022-08-07T03:58:32.000Z,1.1
2022-08-07T04:02:35.000Z,1.2
2022-08-07T04:06:16.000Z,1.3
2022-08-07T04:10:03.000Z,1.3
2022-08-07T04:14:27.000Z,1.3
2022-08-07T04:18:09.000Z,1.3
2022-08-07T04:22:26.000Z,1.3
2022-08-07T04:26:06.000Z,1.4
2022-08-07T04:29:44.000Z,1.3
2022-08-07T04:32:46.000Z,1.3
2022-08-07T04:36:32.000Z,1.2
2022-08-07T04:40:06.000Z,1.5
2022-08-07T04:43:48.000Z,1.3
2022-08-07T04:48:00.000Z,1.3
2022-08-07T04:51:37.000Z,1.4
2022-08-07T04:55:38.000Z,1.7
2022-08-07T05:02:18.000Z,1.4
2022-08-07T05:06:07.000Z,1.4
2022-08-07T05:09:50.000Z,1.5
2022-08-07T05:13:25.000Z,1.3
2022-08-07T05:17:40.000Z,1.5
2022-08-07T05:21:42.000Z,1.3
2022-08-07T05:25:28.000Z,1.4
2022-08-07T05:30:19.000Z,1.5
2022-08-07T05:33:58.000Z,1.4
2022-08-07T05:37:41.000Z,1.4
2022-08-07T05:42:17.000Z,1.5
2022-08-07T05:46:11.000Z,1.6
2022-08-07T05:50:01.000Z,1.3
2022-08-07T05:53:39.000Z,1.1
2022-08-07T05:58:04.000Z,1.3
2022-08-07T06:00:55.000Z,1.1
2022-08-07T06:04:31.000Z,1.1
2022-08-07T06:08:08.000Z,0.8
2022-08-07T06:12:04.000Z,1.4
2022-08-07T06:16:19.000Z,1.1
2022-08-07T06:19:54.000Z,0.9
2022-08-07T06:24:21.000Z,1.1
2022-08-07T06:28:11.000Z,1
2022-08-07T06:31:54.000Z,1
2022-08-07T06:35:31.000Z,1.1
2022-08-07T06:39:43.000Z,1
2022-08-07T06:43:04.000Z,0.9
2022-08-07T06:46:50.000Z,0.9
2022-08-07T06:50:43.000Z,1
2022-08-07T06:54:30.000Z,0.9
2022-08-07T06:59:15.000Z,0.7
2022-08-07T07:03:49.000Z,1.2
2022-08-07T07:08:04.000Z,0.8
2022-08-07T07:11:44.000Z,0.8
2022-08-07T07:15:55.000Z,0.9
2022-08-07T07:19:37.000Z,1
2022-08-07T07:23:38.000Z,0.8
2022-08-07T07:26:55.000Z,0.9
2022-08-07T07:31:39.000Z,0.9
2022-08-07T07:35:13.000Z,1
2022-08-07T07:38:52.000Z,0.9
2022-08-07T07:42:26.000Z,1
2022-08-07T07:46:20.000Z,0.6
2022-08-07T07:50:34.000Z,0.8
2022-08-07T07:54:07.000Z,0.9
2022-08-07T07:57:56.000Z,0.8
2022-08-07T08:01:52.000Z,0.6
2022-08-07T08:06:10.000Z,0.6
2022-08-07T08:09:01.000Z,0.9
2022-08-07T08:12:40.000Z,0.8
2022-08-07T08:16:25.000Z,0.8
2022-08-07T08:20:16.000Z,0.8
2022-08-07T08:24:02.000Z,0.8
2022-08-07T08:28:05.000Z,0.6
2022-08-07T08:31:54.000Z,0.6
2022-08-07T08:35:55.000Z,0.6
2022-08-07T08:40:01.000Z,0.7
2022-08-07T08:43:57.000Z,0.9
2022-08-07T08:51:33.000Z,0.6
2022-08-07T08:55:39.000Z,0.5
2022-08-07T08:59:24.000Z,0.7
2022-08-07T09:03:18.000Z,0.8
2022-08-07T09:07:14.000Z,0.5
2022-08-07T09:10:51.000Z,0.5
2022-08-07T09:14:30.000Z,0.6
2022-08-07T09:18:25.000Z,0.7
2022-08-07T09:22:33.000Z,0.5
2022-08-07T09:28:21.000Z,0.6
2022-08-07T09:33:37.000Z,0.4
2022-08-07T09:36:41.000Z,0.5
2022-08-07T09:40:15.000Z,0.5
2022-08-07T09:44:04.000Z,0.6
2022-08-07T09:49:49.000Z,0.6
2022-08-07T09:54:32.000Z,0.5
2022-08-07T09:58:05.000Z,0.5
2022-08-07T10:01:59.000Z,0.5
2022-08-07T10:06:10.000Z,0.5
2022-08-07T10:09:52.000Z,0.6
2022-08-07T10:14:02.000Z,0.7
2022-08-07T10:17:43.000Z,0.7
2022-08-07T10:20:47.000Z,0.5
2022-08-07T10:24:32.000Z,0.6
2022-08-07T10:28:07.000Z,0.7
2022-08-07T10:31:50.000Z,0.7
2022-08-07T10:36:13.000Z,0.7
2022-08-07T10:40:33.000Z,0.5
2022-08-07T10:44:20.000Z,0.6
2022-08-07T10:48:04.000Z,0.4
2022-08-07T10:51:49.000Z,0.4
2022-08-07T10:55:43.000Z,0.6
2022-08-07T10:59:33.000Z,0.5
2022-08-07T11:02:31.000Z,0.5
2022-08-07T11:06:30.000Z,0.6
2022-08-07T11:10:05.000Z,0.6
2022-08-07T11:13:41.000Z,0.6
2022-08-07T11:18:29.000Z,0.6
2022-08-07T11:22:02.000Z,0.7
2022-08-07T11:25:52.000Z,0.6
2022-08-07T11:30:01.000Z,0.6
2022-08-07T11:33:43.000Z,0.5
2022-08-07T11:37:25.000Z,0.5
2022-08-07T11:44:36.000Z,0.5
2022-08-07T11:50:59.000Z,0.7
2022-08-07T11:54:36.000Z,0.5
2022-08-07T11:58:26.000Z,0.5
2022-08-07T12:02:18.000Z,0.5
2022-08-07T12:05:56.000Z,0.5
2022-08-07T12:10:24.000Z,0.5
2022-08-07T12:14:09.000Z,0.5
2022-08-07T12:18:05.000Z,0.5
2022-08-07T12:22:05.000Z,0.5
2022-08-07T12:26:36.000Z,0.5
2022-08-07T12:29:26.000Z,0.6
2022-08-07T12:33:08.000Z,0.5
2022-08-07T12:36:55.000Z,0.4
2022-08-07T12:40:56.000Z,0.3
2022-08-07T12:44:35.000Z,0.6
2022-08-07T12:48:14.000Z,0.5
2022-08-07T12:52:38.000Z,0.6
2022-08-07T12:56:37.000Z,0.6
2022-08-07T13:00:26.000Z,0.6
2022-08-07T13:04:08.000Z,0.4
2022-08-07T13:08:15.000Z,0.4
2022-08-07T13:11:09.000Z,0.4
2022-08-07T13:14:46.000Z,0.5
2022-08-07T13:18:20.000Z,0.6
2022-08-07T13:21:54.000Z,0.6
2022-08-07T13:26:03.000Z,0.5
2022-08-07T13:30:12.000Z,0.4
2022-08-07T13:34:31.000Z,0.4
2022-08-07T13:38:16.000Z,0.5
2022-08-07T13:42:41.000Z,0.5
2022-08-07T13:46:24.000Z,0.3
2022-08-07T13:50:07.000Z,0.4
2022-08-07T13:53:28.000Z,0.5
2022-08-07T13:57:32.000Z,0.4
2022-08-07T14:01:25.000Z,0.5
2022-08-07T14:06:04.000Z,0.5
2022-08-07T14:09:59.000Z,0.5
2022-08-07T14:14:06.000Z,0.6
2022-08-07T14:17:40.000Z,0.6
2022-08-07T14:22:43.000Z,0.5
2022-08-07T14:26:21.000Z,0.4
2022-08-07T14:30:12.000Z,0.5
2022-08-07T15:13:57.000Z,0.6
2022-08-07T15:55:51.000Z,0.6
2022-08-07T15:59:47.000Z,0.6
2022-08-07T16:03:38.000Z,0.6
2022-08-07T16:07:14.000Z,0.6
2022-08-07T16:12:01.000Z,0.4
2022-08-07T16:15:58.000Z,0.5
2022-08-07T16:20:10.000Z,0.5
2022-08-07T16:24:13.000Z,0.5
2022-08-07T16:28:00.000Z,0.4
2022-08-07T16:32:48.000Z,0.5
2022-08-07T16:35:40.000Z,0.6
2022-08-07T16:40:06.000Z,0.4
2022-08-07T16:43:54.000Z,0.4
2022-08-07T16:48:46.000Z,0.5
2022-08-07T16:54:51.000Z,0.4
2022-08-07T16:58:37.000Z,0.6
2022-08-07T17:02:40.000Z,0.6
2022-08-07T17:06:31.000Z,0.4
2022-08-07T17:10:13.000Z,0.4
2022-08-07T17:14:33.000Z,0.6
2022-08-07T17:18:07.000Z,0.6
2022-08-07T17:20:59.000Z,0.4
2022-08-07T17:24:48.000Z,0.6
2022-08-07T17:28:23.000Z,0.5
2022-08-07T17:32:19.000Z,0.4
2022-08-07T17:36:33.000Z,0.6
2022-08-07T17:40:34.000Z,0.4
2022-08-07T17:44:16.000Z,0.4
2022-08-07T17:48:10.000Z,0.5
2022-08-07T17:51:57.000Z,0.4
2022-08-07T17:56:01.000Z,0.5
2022-08-07T18:00:00.000Z,0.5
2022-08-07T18:02:55.000Z,0.5
2022-08-07T18:06:34.000Z,0.6
2022-08-07T18:10:22.000Z,0.7
2022-08-07T18:14:18.000Z,0.7
2022-08-07T18:17:52.000Z,0.5
2022-08-07T18:24:31.000Z,0.5
2022-08-07T18:28:13.000Z,0.7
2022-08-07T18:32:07.000Z,0.5
2022-08-07T18:35:54.000Z,0.8
2022-08-07T18:40:59.000Z,0.6
2022-08-07T18:44:42.000Z,0.5
2022-08-07T18:49:06.000Z,0.7
2022-08-07T18:54:53.000Z,0.5
2022-08-07T18:59:30.000Z,0.5
2022-08-07T19:06:43.000Z,0.6
2022-08-07T19:10:16.000Z,0.6
2022-08-07T19:14:04.000Z,0.6
2022-08-07T19:18:41.000Z,0.5
2022-08-07T19:22:28.000Z,0.5
2022-08-07T19:26:03.000Z,0.7
2022-08-07T19:32:58.000Z,0.8
2022-08-07T19:36:39.000Z,1
2022-08-07T19:39:31.000Z,0.7
2022-08-07T19:43:43.000Z,0.7
2022-08-07T19:48:06.000Z,0.8
2022-08-07T19:51:57.000Z,0.6
2022-08-07T19:56:54.000Z,0.7
2022-08-07T20:01:40.000Z,0.6
2022-08-07T20:05:34.000Z,0.7
2022-08-07T20:09:46.000Z,0.7
2022-08-07T20:14:33.000Z,0.6
2022-08-07T20:18:34.000Z,0.6
2022-08-07T20:22:10.000Z,0.7
2022-08-07T20:25:13.000Z,0.7
2022-08-07T20:28:50.000Z,0.8
2022-08-07T20:32:24.000Z,0.7
2022-08-07T20:36:05.000Z,0.6
2022-08-07T20:39:58.000Z,0.7
2022-08-07T20:43:59.000Z,0.7
2022-08-07T20:48:29.000Z,0.7
2022-08-07T20:52:02.000Z,0.8
2022-08-07T20:56:03.000Z,0.7
2022-08-07T20:59:46.000Z,0.8
2022-08-07T21:03:53.000Z,0.8
2022-08-07T21:07:07.000Z,1
2022-08-07T21:10:51.000Z,1.1
2022-08-07T21:14:30.000Z,1
2022-08-07T21:18:02.000Z,0.8
2022-08-07T21:22:04.000Z,0.9
2022-08-07T21:25:49.000Z,0.8
2022-08-07T21:29:24.000Z,0.7
2022-08-07T21:33:02.000Z,0.8
2022-08-07T21:36:47.000Z,1
2022-08-07T21:40:26.000Z,0.9
2022-08-07T21:44:13.000Z,1.2
2022-08-07T21:47:14.000Z,1
2022-08-07T21:50:56.000Z,1
2022-08-07T21:54:32.000Z,0.8
2022-08-07T21:58:35.000Z,0.9
2022-08-07T22:02:23.000Z,1
2022-08-07T22:06:01.000Z,0.8
2022-08-07T22:09:58.000Z,0.7
2022-08-07T22:14:05.000Z,0.9
2022-08-07T22:18:45.000Z,1.1
2022-08-07T22:22:22.000Z,1
2022-08-07T22:25:56.000Z,0.8
2022-08-07T22:28:49.000Z,1.1
2022-08-07T22:32:25.000Z,0.9
2022-08-07T22:36:00.000Z,0.9
2022-08-07T22:40:03.000Z,1
2022-08-07T22:44:17.000Z,1
2022-08-07T22:49:01.000Z,1
2022-08-07T22:52:38.000Z,1
2022-08-07T22:56:14.000Z,1.2
2022-08-07T22:59:57.000Z,1
2022-08-07T23:03:48.000Z,1
2022-08-07T23:08:13.000Z,1.2
2022-08-07T23:11:14.000Z,1.2
2022-08-07T23:14:47.000Z,1.1
2022-08-07T23:18:53.000Z,1.1
2022-08-07T23:22:51.000Z,1
2022-08-07T23:26:26.000Z,1.3
2022-08-07T23:30:27.000Z,1.1
2022-08-07T23:36:23.000Z,1.3
2022-08-07T23:40:00.000Z,1.1
2022-08-07T23:44:00.000Z,1.2
2022-08-07T23:48:06.000Z,1.3
2022-08-07T23:51:49.000Z,1.1
2022-08-07T23:55:50.000Z,1.3
2022-08-07T23:59:26.000Z,1.2
